Terminal Aerodrome Forecast
Issued by NWS

Home | Current Version | Previous Version | Text Only | Print | Product List | Glossary On
Versions: 1 2 3 4 5 6 7 8 9 10 11 12 13 14 15 16 17 18 19 20 21 22 23 24 25 26 27 28
000
FTUS46 KMTR 201500 AAA
TAFSFO
TAF AMD
KSFO 201504Z 2015/2118 28004KT P6SM OVC010
     FM201800 29010KT P6SM FEW008
     FM202100 29016KT P6SM FEW008 SCT010
     FM210400 29008KT P6SM SCT010
     FM210800 29006KT P6SM BKN008=

USA.gov is the U.S. government's official web portal to all federal, state and local government web resources and services.